sensor_id;sensor_type;location;lat;lon;timestamp;temperature;humidity
73133;DHT22;61320;52.008;4.530;2022-12-29T00:02:09;11.81;82.96
73133;DHT22;61320;52.008;4.530;2022-12-29T00:04:34;11.78;82.78
73133;DHT22;61320;52.008;4.530;2022-12-29T00:07:00;11.75;83.10
73133;DHT22;61320;52.008;4.530;2022-12-29T00:09:26;11.74;83.23
73133;DHT22;61320;52.008;4.530;2022-12-29T00:11:52;11.80;82.65
73133;DHT22;61320;52.008;4.530;2022-12-29T00:14:18;11.81;82.80
73133;DHT22;61320;52.008;4.530;2022-12-29T00:17:02;11.83;83.21
73133;DHT22;61320;52.008;4.530;2022-12-29T00:19:28;11.88;82.98
73133;DHT22;61320;52.008;4.530;2022-12-29T00:22:13;11.90;82.56
73133;DHT22;61320;52.008;4.530;2022-12-29T00:24:59;11.87;82.41
73133;DHT22;61320;52.008;4.530;2022-12-29T00:27:31;11.88;82.15
73133;DHT22;61320;52.008;4.530;2022-12-29T00:30:23;11.84;81.98
73133;DHT22;61320;52.008;4.530;2022-12-29T00:33:12;11.87;82.43
73133;DHT22;61320;52.008;4.530;2022-12-29T00:38:46;11.94;82.05
73133;DHT22;61320;52.008;4.530;2022-12-29T00:41:31;11.88;82.44
73133;DHT22;61320;52.008;4.530;2022-12-29T00:44:15;11.84;82.92
73133;DHT22;61320;52.008;4.530;2022-12-29T00:46:42;11.81;83.28
73133;DHT22;61320;52.008;4.530;2022-12-29T00:49:10;11.81;83.87
73133;DHT22;61320;52.008;4.530;2022-12-29T00:51:58;11.77;83.44
73133;DHT22;61320;52.008;4.530;2022-12-29T00:54:23;11.75;83.66
73133;DHT22;61320;52.008;4.530;2022-12-29T00:56:50;11.75;83.93
73133;DHT22;61320;52.008;4.530;2022-12-29T00:59:17;11.71;83.93
73133;DHT22;61320;52.008;4.530;2022-12-29T01:01:44;11.70;84.22
73133;DHT22;61320;52.008;4.530;2022-12-29T01:04:10;11.63;84.48
73133;DHT22;61320;52.008;4.530;2022-12-29T01:06:38;11.67;84.40
73133;DHT22;61320;52.008;4.530;2022-12-29T01:09:04;11.63;84.53
73133;DHT22;61320;52.008;4.530;2022-12-29T01:11:48;11.62;84.79
73133;DHT22;61320;52.008;4.530;2022-12-29T01:14:15;11.67;84.81
73133;DHT22;61320;52.008;4.530;2022-12-29T01:16:40;11.70;85.02
73133;DHT22;61320;52.008;4.530;2022-12-29T01:19:06;11.70;84.31
73133;DHT22;61320;52.008;4.530;2022-12-29T01:21:32;11.67;84.72
73133;DHT22;61320;52.008;4.530;2022-12-29T01:23:57;11.69;84.35
73133;DHT22;61320;52.008;4.530;2022-12-29T01:26:23;11.67;84.27
73133;DHT22;61320;52.008;4.530;2022-12-29T01:28:48;11.74;84.06
73133;DHT22;61320;52.008;4.530;2022-12-29T01:31:15;11.74;84.23
73133;DHT22;61320;52.008;4.530;2022-12-29T01:33:41;11.75;83.94
73133;DHT22;61320;52.008;4.530;2022-12-29T01:36:13;11.71;84.22
73133;DHT22;61320;52.008;4.530;2022-12-29T01:38:40;11.75;84.34
73133;DHT22;61320;52.008;4.530;2022-12-29T01:41:08;11.74;83.73
73133;DHT22;61320;52.008;4.530;2022-12-29T01:43:53;11.69;83.73
73133;DHT22;61320;52.008;4.530;2022-12-29T01:49:18;11.71;83.78
73133;DHT22;61320;52.008;4.530;2022-12-29T01:51:49;11.75;83.05
73133;DHT22;61320;52.008;4.530;2022-12-29T01:54:24;11.70;83.13
73133;DHT22;61320;52.008;4.530;2022-12-29T01:56:55;11.66;82.80
73133;DHT22;61320;52.008;4.530;2022-12-29T01:59:27;11.67;83.02
73133;DHT22;61320;52.008;4.530;2022-12-29T02:01:54;11.70;83.10
73133;DHT22;61320;52.008;4.530;2022-12-29T02:04:23;11.73;82.55
73133;DHT22;61320;52.008;4.530;2022-12-29T02:06:55;11.70;82.60
73133;DHT22;61320;52.008;4.530;2022-12-29T02:09:23;11.66;82.16
73133;DHT22;61320;52.008;4.530;2022-12-29T02:11:48;11.64;82.35
73133;DHT22;61320;52.008;4.530;2022-12-29T02:14:14;11.69;82.33
73133;DHT22;61320;52.008;4.530;2022-12-29T02:19:49;11.71;81.84
73133;DHT22;61320;52.008;4.530;2022-12-29T02:31:20;11.74;82.39
73133;DHT22;61320;52.008;4.530;2022-12-29T02:34:10;11.71;82.10
73133;DHT22;61320;52.008;4.530;2022-12-29T02:36:43;11.77;82.47
73133;DHT22;61320;52.008;4.530;2022-12-29T02:50:02;11.53;80.66
73133;DHT22;61320;52.008;4.530;2022-12-29T02:52:49;11.43;81.10
73133;DHT22;61320;52.008;4.530;2022-12-29T02:55:15;11.37;80.72
73133;DHT22;61320;52.008;4.530;2022-12-29T02:57:41;11.37;81.06
73133;DHT22;61320;52.008;4.530;2022-12-29T03:00:15;11.33;80.82
73133;DHT22;61320;52.008;4.530;2022-12-29T03:04:01;11.27;80.55
73133;DHT22;61320;52.008;4.530;2022-12-29T03:08:53;11.30;80.73
73133;DHT22;61320;52.008;4.530;2022-12-29T03:11:25;11.33;80.47
73133;DHT22;61320;52.008;4.530;2022-12-29T03:14:29;11.36;80.13
73133;DHT22;61320;52.008;4.530;2022-12-29T03:17:26;11.40;80.46
73133;DHT22;61320;52.008;4.530;2022-12-29T03:20:01;11.47;79.95
73133;DHT22;61320;52.008;4.530;2022-12-29T03:22:34;11.47;79.85
73133;DHT22;61320;52.008;4.530;2022-12-29T03:27:41;11.44;79.90
73133;DHT22;61320;52.008;4.530;2022-12-29T03:30:07;11.37;79.71
73133;DHT22;61320;52.008;4.530;2022-12-29T03:32:53;11.39;80.40
73133;DHT22;61320;52.008;4.530;2022-12-29T03:35:23;11.39;79.81
73133;DHT22;61320;52.008;4.530;2022-12-29T03:37:57;11.40;79.79
73133;DHT22;61320;52.008;4.530;2022-12-29T03:40:25;11.43;79.69
73133;DHT22;61320;52.008;4.530;2022-12-29T03:42:53;11.44;79.74
73133;DHT22;61320;52.008;4.530;2022-12-29T03:45:20;11.40;79.74
73133;DHT22;61320;52.008;4.530;2022-12-29T03:47:45;11.33;80.21
73133;DHT22;61320;52.008;4.530;2022-12-29T03:50:14;11.33;80.02
73133;DHT22;61320;52.008;4.530;2022-12-29T03:52:39;11.36;79.92
73133;DHT22;61320;52.008;4.530;2022-12-29T03:55:05;11.37;80.12
73133;DHT22;61320;52.008;4.530;2022-12-29T03:57:31;11.30;79.69
73133;DHT22;61320;52.008;4.530;2022-12-29T03:59:56;11.32;79.85
73133;DHT22;61320;52.008;4.530;2022-12-29T04:02:22;11.30;79.64
73133;DHT22;61320;52.008;4.530;2022-12-29T04:04:49;11.26;78.71
73133;DHT22;61320;52.008;4.530;2022-12-29T04:07:14;11.26;78.72
73133;DHT22;61320;52.008;4.530;2022-12-29T04:09:39;11.19;78.75
73133;DHT22;61320;52.008;4.530;2022-12-29T04:12:05;11.18;78.42
73133;DHT22;61320;52.008;4.530;2022-12-29T04:14:30;11.16;78.56
73133;DHT22;61320;52.008;4.530;2022-12-29T04:16:56;11.13;78.40
73133;DHT22;61320;52.008;4.530;2022-12-29T04:19:21;11.13;79.01
73133;DHT22;61320;52.008;4.530;2022-12-29T04:21:47;11.13;78.79
73133;DHT22;61320;52.008;4.530;2022-12-29T04:24:13;11.09;78.91
73133;DHT22;61320;52.008;4.530;2022-12-29T04:26:39;11.05;79.04
73133;DHT22;61320;52.008;4.530;2022-12-29T04:29:04;11.08;79.54
73133;DHT22;61320;52.008;4.530;2022-12-29T04:31:30;11.06;78.76
73133;DHT22;61320;52.008;4.530;2022-12-29T04:33:55;11.05;79.51
73133;DHT22;61320;52.008;4.530;2022-12-29T04:36:23;11.04;79.64
73133;DHT22;61320;52.008;4.530;2022-12-29T04:38:48;11.09;80.21
73133;DHT22;61320;52.008;4.530;2022-12-29T04:41:13;11.11;80.15
73133;DHT22;61320;52.008;4.530;2022-12-29T04:43:39;11.16;79.97
73133;DHT22;61320;52.008;4.530;2022-12-29T04:46:05;11.20;80.06
73133;DHT22;61320;52.008;4.530;2022-12-29T04:48:30;11.26;79.70
73133;DHT22;61320;52.008;4.530;2022-12-29T04:50:56;11.25;79.46
73133;DHT22;61320;52.008;4.530;2022-12-29T04:53:21;11.23;79.54
73133;DHT22;61320;52.008;4.530;2022-12-29T04:55:52;11.23;79.92
73133;DHT22;61320;52.008;4.530;2022-12-29T04:58:20;11.23;80.34
73133;DHT22;61320;52.008;4.530;2022-12-29T05:00:46;11.20;80.83
73133;DHT22;61320;52.008;4.530;2022-12-29T05:03:11;11.16;81.30
73133;DHT22;61320;52.008;4.530;2022-12-29T05:05:37;11.09;81.83
73133;DHT22;61320;52.008;4.530;2022-12-29T05:08:02;11.06;82.14
73133;DHT22;61320;52.008;4.530;2022-12-29T05:10:28;11.02;82.44
73133;DHT22;61320;52.008;4.530;2022-12-29T05:12:53;10.98;82.22
73133;DHT22;61320;52.008;4.530;2022-12-29T05:15:19;10.94;82.44
73133;DHT22;61320;52.008;4.530;2022-12-29T05:17:44;10.91;82.76
73133;DHT22;61320;52.008;4.530;2022-12-29T05:20:11;10.92;83.00
73133;DHT22;61320;52.008;4.530;2022-12-29T05:22:36;10.95;82.88
73133;DHT22;61320;52.008;4.530;2022-12-29T05:25:03;10.98;82.56
73133;DHT22;61320;52.008;4.530;2022-12-29T05:27:28;10.92;82.47
73133;DHT22;61320;52.008;4.530;2022-12-29T05:29:54;10.92;82.75
73133;DHT22;61320;52.008;4.530;2022-12-29T05:32:19;10.95;82.51
73133;DHT22;61320;52.008;4.530;2022-12-29T05:34:45;10.94;81.65
73133;DHT22;61320;52.008;4.530;2022-12-29T05:37:11;10.91;82.15
73133;DHT22;61320;52.008;4.530;2022-12-29T05:39:36;10.88;81.89
73133;DHT22;61320;52.008;4.530;2022-12-29T05:42:02;10.84;81.86
73133;DHT22;61320;52.008;4.530;2022-12-29T05:44:27;10.84;81.62
73133;DHT22;61320;52.008;4.530;2022-12-29T05:46:53;10.85;82.06
73133;DHT22;61320;52.008;4.530;2022-12-29T05:49:18;10.84;82.15
73133;DHT22;61320;52.008;4.530;2022-12-29T05:51:44;10.79;82.58
73133;DHT22;61320;52.008;4.530;2022-12-29T05:54:09;10.72;82.67
73133;DHT22;61320;52.008;4.530;2022-12-29T05:56:35;10.69;82.92
73133;DHT22;61320;52.008;4.530;2022-12-29T05:59:00;10.63;83.60
73133;DHT22;61320;52.008;4.530;2022-12-29T06:01:26;10.50;83.99
73133;DHT22;61320;52.008;4.530;2022-12-29T06:03:51;10.48;84.25
73133;DHT22;61320;52.008;4.530;2022-12-29T06:06:17;10.54;83.93
73133;DHT22;61320;52.008;4.530;2022-12-29T06:08:42;10.51;84.05
73133;DHT22;61320;52.008;4.530;2022-12-29T06:11:08;10.50;83.81
73133;DHT22;61320;52.008;4.530;2022-12-29T06:13:33;10.46;83.96
73133;DHT22;61320;52.008;4.530;2022-12-29T06:15:59;10.44;83.77
73133;DHT22;61320;52.008;4.530;2022-12-29T06:18:24;10.44;83.44
73133;DHT22;61320;52.008;4.530;2022-12-29T06:20:50;10.40;83.19
73133;DHT22;61320;52.008;4.530;2022-12-29T06:23:15;10.38;83.45
73133;DHT22;61320;52.008;4.530;2022-12-29T06:25:41;10.41;82.79
73133;DHT22;61320;52.008;4.530;2022-12-29T06:28:07;10.40;82.43
73133;DHT22;61320;52.008;4.530;2022-12-29T06:30:33;10.37;82.53
73133;DHT22;61320;52.008;4.530;2022-12-29T06:33:01;10.36;82.52
73133;DHT22;61320;52.008;4.530;2022-12-29T06:35:27;10.36;82.40
73133;DHT22;61320;52.008;4.530;2022-12-29T06:37:52;10.29;81.21
73133;DHT22;61320;52.008;4.530;2022-12-29T06:40:17;10.24;81.49
73133;DHT22;61320;52.008;4.530;2022-12-29T06:42:43;10.16;81.67
73133;DHT22;61320;52.008;4.530;2022-12-29T06:45:09;10.14;81.60
73133;DHT22;61320;52.008;4.530;2022-12-29T06:47:35;10.13;81.32
73133;DHT22;61320;52.008;4.530;2022-12-29T06:50:02;10.10;81.26
73133;DHT22;61320;52.008;4.530;2022-12-29T06:52:28;10.10;81.45
73133;DHT22;61320;52.008;4.530;2022-12-29T06:54:54;10.13;81.19
73133;DHT22;61320;52.008;4.530;2022-12-29T06:57:20;10.10;80.30
73133;DHT22;61320;52.008;4.530;2022-12-29T06:59:46;10.13;80.67
73133;DHT22;61320;52.008;4.530;2022-12-29T07:02:12;10.13;81.21
73133;DHT22;61320;52.008;4.530;2022-12-29T07:04:39;10.16;80.75
73133;DHT22;61320;52.008;4.530;2022-12-29T07:07:04;10.20;81.10
73133;DHT22;61320;52.008;4.530;2022-12-29T07:09:30;10.23;80.72
73133;DHT22;61320;52.008;4.530;2022-12-29T07:11:55;10.24;80.89
73133;DHT22;61320;52.008;4.530;2022-12-29T07:14:21;10.29;80.80
73133;DHT22;61320;52.008;4.530;2022-12-29T07:16:46;10.32;80.73
73133;DHT22;61320;52.008;4.530;2022-12-29T07:19:12;10.27;80.46
73133;DHT22;61320;52.008;4.530;2022-12-29T07:21:37;10.32;81.37
73133;DHT22;61320;52.008;4.530;2022-12-29T07:24:03;10.36;80.61
73133;DHT22;61320;52.008;4.530;2022-12-29T07:26:28;10.37;80.62
73133;DHT22;61320;52.008;4.530;2022-12-29T07:28:54;10.40;80.78
73133;DHT22;61320;52.008;4.530;2022-12-29T07:31:22;10.44;80.45
73133;DHT22;61320;52.008;4.530;2022-12-29T07:33:48;10.47;80.49
73133;DHT22;61320;52.008;4.530;2022-12-29T07:36:16;10.50;79.71
73133;DHT22;61320;52.008;4.530;2022-12-29T07:38:42;10.48;80.37
73133;DHT22;61320;52.008;4.530;2022-12-29T07:41:08;10.57;79.97
73133;DHT22;61320;52.008;4.530;2022-12-29T07:43:34;10.58;79.08
73133;DHT22;61320;52.008;4.530;2022-12-29T07:45:59;10.57;79.02
73133;DHT22;61320;52.008;4.530;2022-12-29T07:48:25;10.63;79.93
73133;DHT22;61320;52.008;4.530;2022-12-29T07:50:51;10.57;79.08
73133;DHT22;61320;52.008;4.530;2022-12-29T07:53:17;10.60;78.69
73133;DHT22;61320;52.008;4.530;2022-12-29T07:55:43;10.64;78.89
73133;DHT22;61320;52.008;4.530;2022-12-29T07:58:08;10.61;79.10
73133;DHT22;61320;52.008;4.530;2022-12-29T08:00:34;10.67;79.33
73133;DHT22;61320;52.008;4.530;2022-12-29T08:02:59;10.67;79.04
73133;DHT22;61320;52.008;4.530;2022-12-29T08:05:25;10.67;79.28
73133;DHT22;61320;52.008;4.530;2022-12-29T08:07:50;10.63;79.26
73133;DHT22;61320;52.008;4.530;2022-12-29T08:10:16;10.57;80.25
73133;DHT22;61320;52.008;4.530;2022-12-29T08:12:42;10.51;81.34
73133;DHT22;61320;52.008;4.530;2022-12-29T08:15:10;10.44;81.42
73133;DHT22;61320;52.008;4.530;2022-12-29T08:17:36;10.44;81.28
73133;DHT22;61320;52.008;4.530;2022-12-29T08:20:03;10.37;81.52
73133;DHT22;61320;52.008;4.530;2022-12-29T08:22:29;10.38;81.35
73133;DHT22;61320;52.008;4.530;2022-12-29T08:24:54;10.36;82.09
73133;DHT22;61320;52.008;4.530;2022-12-29T08:27:20;10.26;82.34
73133;DHT22;61320;52.008;4.530;2022-12-29T08:29:45;10.26;82.53
73133;DHT22;61320;52.008;4.530;2022-12-29T08:32:11;10.20;82.25
73133;DHT22;61320;52.008;4.530;2022-12-29T08:34:36;10.26;82.59
73133;DHT22;61320;52.008;4.530;2022-12-29T08:37:02;10.24;82.04
73133;DHT22;61320;52.008;4.530;2022-12-29T08:39:28;10.21;82.81
73133;DHT22;61320;52.008;4.530;2022-12-29T08:41:54;10.24;82.56
73133;DHT22;61320;52.008;4.530;2022-12-29T08:44:20;10.23;82.67
73133;DHT22;61320;52.008;4.530;2022-12-29T08:46:45;10.20;83.03
73133;DHT22;61320;52.008;4.530;2022-12-29T08:49:11;10.27;83.15
73133;DHT22;61320;52.008;4.530;2022-12-29T08:51:36;10.27;82.80
73133;DHT22;61320;52.008;4.530;2022-12-29T08:54:02;10.24;83.39
73133;DHT22;61320;52.008;4.530;2022-12-29T08:56:28;10.21;83.81
73133;DHT22;61320;52.008;4.530;2022-12-29T08:58:54;10.13;83.93
73133;DHT22;61320;52.008;4.530;2022-12-29T09:01:20;10.13;84.01
73133;DHT22;61320;52.008;4.530;2022-12-29T09:03:46;10.14;84.12
73133;DHT22;61320;52.008;4.530;2022-12-29T09:06:13;10.21;84.40
73133;DHT22;61320;52.008;4.530;2022-12-29T09:08:39;10.26;83.65
73133;DHT22;61320;52.008;4.530;2022-12-29T09:11:10;10.26;83.96
73133;DHT22;61320;52.008;4.530;2022-12-29T09:13:35;10.26;84.01
73133;DHT22;61320;52.008;4.530;2022-12-29T09:16:02;10.32;83.96
73133;DHT22;61320;52.008;4.530;2022-12-29T09:18:27;10.32;84.15
73133;DHT22;61320;52.008;4.530;2022-12-29T09:20:58;10.33;83.81
73133;DHT22;61320;52.008;4.530;2022-12-29T09:23:24;10.34;84.01
73133;DHT22;61320;52.008;4.530;2022-12-29T09:25:49;10.36;84.26
73133;DHT22;61320;52.008;4.530;2022-12-29T09:28:15;10.40;84.59
73133;DHT22;61320;52.008;4.530;2022-12-29T09:30:41;10.44;84.01
73133;DHT22;61320;52.008;4.530;2022-12-29T09:33:07;10.40;84.04
73133;DHT22;61320;52.008;4.530;2022-12-29T09:35:32;10.46;84.28
73133;DHT22;61320;52.008;4.530;2022-12-29T09:37:58;10.47;84.15
73133;DHT22;61320;52.008;4.530;2022-12-29T09:40:27;10.50;83.94
73133;DHT22;61320;52.008;4.530;2022-12-29T09:48:42;10.61;84.07
73133;DHT22;61320;52.008;4.530;2022-12-29T09:51:17;10.65;83.97
73133;DHT22;61320;52.008;4.530;2022-12-29T09:53:54;10.65;83.88
73133;DHT22;61320;52.008;4.530;2022-12-29T09:56:24;10.67;84.03
73133;DHT22;61320;52.008;4.530;2022-12-29T09:59:02;10.69;83.73
73133;DHT22;61320;52.008;4.530;2022-12-29T10:04:03;10.72;83.88
73133;DHT22;61320;52.008;4.530;2022-12-29T10:23:42;10.84;83.00
73133;DHT22;61320;52.008;4.530;2022-12-29T10:26:15;10.91;82.87
73133;DHT22;61320;52.008;4.530;2022-12-29T10:28:48;10.96;83.36
73133;DHT22;61320;52.008;4.530;2022-12-29T10:31:23;11.02;82.68
73133;DHT22;61320;52.008;4.530;2022-12-29T10:33:55;11.04;82.64
73133;DHT22;61320;52.008;4.530;2022-12-29T10:36:33;11.04;82.13
73133;DHT22;61320;52.008;4.530;2022-12-29T10:41:46;10.91;81.68
73133;DHT22;61320;52.008;4.530;2022-12-29T10:44:16;10.94;82.13
73133;DHT22;61320;52.008;4.530;2022-12-29T10:46:44;10.96;82.53
73133;DHT22;61320;52.008;4.530;2022-12-29T10:49:18;11.04;82.10
73133;DHT22;61320;52.008;4.530;2022-12-29T10:51:47;11.15;81.45
73133;DHT22;61320;52.008;4.530;2022-12-29T10:56:52;11.16;81.38
73133;DHT22;61320;52.008;4.530;2022-12-29T10:59:22;11.16;81.51
73133;DHT22;61320;52.008;4.530;2022-12-29T11:02:00;11.22;81.53
73133;DHT22;61320;52.008;4.530;2022-12-29T11:05:02;11.22;81.37
73133;DHT22;61320;52.008;4.530;2022-12-29T11:07:30;11.29;81.46
73133;DHT22;61320;52.008;4.530;2022-12-29T11:10:17;11.37;81.76
73133;DHT22;61320;52.008;4.530;2022-12-29T11:12:58;11.47;80.86
73133;DHT22;61320;52.008;4.530;2022-12-29T11:15:24;11.44;79.51
73133;DHT22;61320;52.008;4.530;2022-12-29T11:17:52;11.30;79.50
73133;DHT22;61320;52.008;4.530;2022-12-29T11:20:38;11.20;80.32
73133;DHT22;61320;52.008;4.530;2022-12-29T11:23:20;11.15;79.75
73133;DHT22;61320;52.008;4.530;2022-12-29T11:28:30;11.06;80.16
73133;DHT22;61320;52.008;4.530;2022-12-29T11:31:01;11.05;80.53
73133;DHT22;61320;52.008;4.530;2022-12-29T11:33:32;11.08;80.40
73133;DHT22;61320;52.008;4.530;2022-12-29T11:36:17;11.08;80.88
73133;DHT22;61320;52.008;4.530;2022-12-29T11:38:50;11.02;80.31
73133;DHT22;61320;52.008;4.530;2022-12-29T11:41:25;11.02;80.12
73133;DHT22;61320;52.008;4.530;2022-12-29T11:43:55;11.06;79.53
73133;DHT22;61320;52.008;4.530;2022-12-29T11:46:26;11.22;80.80
73133;DHT22;61320;52.008;4.530;2022-12-29T11:48:53;11.39;79.48
73133;DHT22;61320;52.008;4.530;2022-12-29T11:51:27;11.42;78.48
73133;DHT22;61320;52.008;4.530;2022-12-29T11:54:00;11.30;78.02
73133;DHT22;61320;52.008;4.530;2022-12-29T11:56:39;11.20;78.76
73133;DHT22;61320;52.008;4.530;2022-12-29T12:01:58;11.18;79.64
73133;DHT22;61320;52.008;4.530;2022-12-29T12:04:32;11.19;79.99
73133;DHT22;61320;52.008;4.530;2022-12-29T12:07:32;11.18;79.47
73133;DHT22;61320;52.008;4.530;2022-12-29T12:10:04;11.26;79.84
73133;DHT22;61320;52.008;4.530;2022-12-29T12:15:34;11.33;79.35
73133;DHT22;61320;52.008;4.530;2022-12-29T12:20:44;11.30;79.10
73133;DHT22;61320;52.008;4.530;2022-12-29T12:26:02;11.35;78.73
73133;DHT22;61320;52.008;4.530;2022-12-29T12:28:50;11.29;78.27
73133;DHT22;61320;52.008;4.530;2022-12-29T12:31:44;11.37;78.39
73133;DHT22;61320;52.008;4.530;2022-12-29T12:34:21;11.40;77.80
73133;DHT22;61320;52.008;4.530;2022-12-29T12:55:28;11.29;79.16
73133;DHT22;61320;52.008;4.530;2022-12-29T12:58:20;11.35;79.03
73133;DHT22;61320;52.008;4.530;2022-12-29T13:01:10;11.32;77.54
73133;DHT22;61320;52.008;4.530;2022-12-29T13:21:10;11.49;77.82
73133;DHT22;61320;52.008;4.530;2022-12-29T13:23:57;11.39;78.08
73133;DHT22;61320;52.008;4.530;2022-12-29T13:26:33;11.43;78.40
73133;DHT22;61320;52.008;4.530;2022-12-29T13:29:30;11.49;78.01
73133;DHT22;61320;52.008;4.530;2022-12-29T13:37:26;11.44;78.00
73133;DHT22;61320;52.008;4.530;2022-12-29T13:40:02;11.40;77.73
73133;DHT22;61320;52.008;4.530;2022-12-29T13:42:31;11.36;79.58
73133;DHT22;61320;52.008;4.530;2022-12-29T13:45:05;11.25;80.78
73133;DHT22;61320;52.008;4.530;2022-12-29T13:47:51;11.05;80.89
73133;DHT22;61320;52.008;4.530;2022-12-29T13:50:22;10.92;81.86
73133;DHT22;61320;52.008;4.530;2022-12-29T14:03:56;10.46;83.37
73133;DHT22;61320;52.008;4.530;2022-12-29T14:06:27;10.44;84.12
73133;DHT22;61320;52.008;4.530;2022-12-29T14:08:58;10.47;84.25
73133;DHT22;61320;52.008;4.530;2022-12-29T14:11:34;10.48;84.17
73133;DHT22;61320;52.008;4.530;2022-12-29T14:14:29;10.51;83.87
73133;DHT22;61320;52.008;4.530;2022-12-29T14:17:09;10.54;83.77
73133;DHT22;61320;52.008;4.530;2022-12-29T14:19:39;10.57;83.95
73133;DHT22;61320;52.008;4.530;2022-12-29T14:22:07;10.55;84.26
73133;DHT22;61320;52.008;4.530;2022-12-29T14:29:50;10.51;83.43
73133;DHT22;61320;52.008;4.530;2022-12-29T14:34:59;10.44;84.07
73133;DHT22;61320;52.008;4.530;2022-12-29T14:37:36;10.48;84.01
73133;DHT22;61320;52.008;4.530;2022-12-29T14:40:25;10.48;84.01
73133;DHT22;61320;52.008;4.530;2022-12-29T14:42:54;10.48;83.76
73133;DHT22;61320;52.008;4.530;2022-12-29T14:47:51;10.55;83.01
73133;DHT22;61320;52.008;4.530;2022-12-29T14:50:24;10.54;83.41
73133;DHT22;61320;52.008;4.530;2022-12-29T14:52:55;10.58;82.68
73133;DHT22;61320;52.008;4.530;2022-12-29T14:55:41;10.57;82.37
73133;DHT22;61320;52.008;4.530;2022-12-29T14:58:22;10.55;82.35
73133;DHT22;61320;52.008;4.530;2022-12-29T15:00:51;10.57;82.56
73133;DHT22;61320;52.008;4.530;2022-12-29T15:03:24;10.60;82.27
73133;DHT22;61320;52.008;4.530;2022-12-29T15:05:54;10.54;81.82
73133;DHT22;61320;52.008;4.530;2022-12-29T15:08:24;10.50;81.89
73133;DHT22;61320;52.008;4.530;2022-12-29T15:11:00;10.47;82.17
73133;DHT22;61320;52.008;4.530;2022-12-29T15:13:36;10.50;82.52
73133;DHT22;61320;52.008;4.530;2022-12-29T15:16:03;10.47;81.96
73133;DHT22;61320;52.008;4.530;2022-12-29T15:18:32;10.46;82.03
73133;DHT22;61320;52.008;4.530;2022-12-29T15:21:01;10.47;81.54
73133;DHT22;61320;52.008;4.530;2022-12-29T15:23:29;10.46;81.75
73133;DHT22;61320;52.008;4.530;2022-12-29T15:25:59;10.44;81.80
73133;DHT22;61320;52.008;4.530;2022-12-29T15:28:27;10.40;81.18
73133;DHT22;61320;52.008;4.530;2022-12-29T15:31:02;10.44;81.72
73133;DHT22;61320;52.008;4.530;2022-12-29T15:33:28;10.46;81.40
73133;DHT22;61320;52.008;4.530;2022-12-29T15:35:56;10.37;80.59
73133;DHT22;61320;52.008;4.530;2022-12-29T15:38:23;10.34;81.03
73133;DHT22;61320;52.008;4.530;2022-12-29T15:41:02;10.33;80.56
73133;DHT22;61320;52.008;4.530;2022-12-29T15:46:31;10.27;80.44
73133;DHT22;61320;52.008;4.530;2022-12-29T15:48:57;10.23;80.83
73133;DHT22;61320;52.008;4.530;2022-12-29T15:51:38;10.21;80.39
73133;DHT22;61320;52.008;4.530;2022-12-29T15:54:06;10.20;80.67
73133;DHT22;61320;52.008;4.530;2022-12-29T15:56:37;10.13;80.46
73133;DHT22;61320;52.008;4.530;2022-12-29T15:59:03;10.12;80.72
73133;DHT22;61320;52.008;4.530;2022-12-29T16:01:32;10.12;80.91
73133;DHT22;61320;52.008;4.530;2022-12-29T16:04:01;10.12;80.40
73133;DHT22;61320;52.008;4.530;2022-12-29T16:06:36;10.06;80.01
73133;DHT22;61320;52.008;4.530;2022-12-29T16:09:18;10.09;79.85
73133;DHT22;61320;52.008;4.530;2022-12-29T16:11:51;10.02;79.75
73133;DHT22;61320;52.008;4.530;2022-12-29T16:14:23;9.97;79.95
73133;DHT22;61320;52.008;4.530;2022-12-29T16:16:50;10.03;79.49
73133;DHT22;61320;52.008;4.530;2022-12-29T16:19:33;9.93;79.96
73133;DHT22;61320;52.008;4.530;2022-12-29T16:22:03;9.95;80.20
73133;DHT22;61320;52.008;4.530;2022-12-29T16:24:32;9.92;79.15
73133;DHT22;61320;52.008;4.530;2022-12-29T16:29:23;9.92;79.44
73133;DHT22;61320;52.008;4.530;2022-12-29T16:31:53;9.92;78.94
73133;DHT22;61320;52.008;4.530;2022-12-29T16:36:59;9.92;79.22
73133;DHT22;61320;52.008;4.530;2022-12-29T16:41:54;9.90;79.05
73133;DHT22;61320;52.008;4.530;2022-12-29T16:44:30;9.82;79.05
73133;DHT22;61320;52.008;4.530;2022-12-29T16:49:32;9.81;79.81
73133;DHT22;61320;52.008;4.530;2022-12-29T16:51:58;9.83;79.51
73133;DHT22;61320;52.008;4.530;2022-12-29T16:54:33;9.76;79.11
73133;DHT22;61320;52.008;4.530;2022-12-29T16:57:02;9.74;79.56
73133;DHT22;61320;52.008;4.530;2022-12-29T16:59:35;9.71;79.27
73133;DHT22;61320;52.008;4.530;2022-12-29T17:02:08;9.72;79.44
73133;DHT22;61320;52.008;4.530;2022-12-29T17:04:36;9.69;79.02
73133;DHT22;61320;52.008;4.530;2022-12-29T17:07:02;9.67;79.43
73133;DHT22;61320;52.008;4.530;2022-12-29T17:09:28;9.63;78.88
73133;DHT22;61320;52.008;4.530;2022-12-29T17:11:58;9.62;78.70
73133;DHT22;61320;52.008;4.530;2022-12-29T17:14:47;9.55;79.24
73133;DHT22;61320;52.008;4.530;2022-12-29T17:17:19;9.57;78.74
73133;DHT22;61320;52.008;4.530;2022-12-29T17:19:55;9.55;78.36
73133;DHT22;61320;52.008;4.530;2022-12-29T17:22:26;9.55;78.29
73133;DHT22;61320;52.008;4.530;2022-12-29T17:24:56;9.55;78.32
73133;DHT22;61320;52.008;4.530;2022-12-29T17:27:37;9.57;79.02
73133;DHT22;61320;52.008;4.530;2022-12-29T17:30:15;9.52;78.46
73133;DHT22;61320;52.008;4.530;2022-12-29T17:32:42;9.55;77.93
73133;DHT22;61320;52.008;4.530;2022-12-29T17:35:16;9.52;78.15
73133;DHT22;61320;52.008;4.530;2022-12-29T17:37:42;9.51;78.49
73133;DHT22;61320;52.008;4.530;2022-12-29T17:40:18;9.54;78.69
73133;DHT22;61320;52.008;4.530;2022-12-29T17:42:47;9.49;78.29
73133;DHT22;61320;52.008;4.530;2022-12-29T17:45:21;9.41;78.50
73133;DHT22;61320;52.008;4.530;2022-12-29T17:47:47;9.38;78.75
73133;DHT22;61320;52.008;4.530;2022-12-29T17:50:14;9.38;78.81
73133;DHT22;61320;52.008;4.530;2022-12-29T17:52:43;9.35;78.74
73133;DHT22;61320;52.008;4.530;2022-12-29T17:55:17;9.38;78.98
73133;DHT22;61320;52.008;4.530;2022-12-29T17:57:44;9.42;78.51
73133;DHT22;61320;52.008;4.530;2022-12-29T18:00:24;9.37;78.39
73133;DHT22;61320;52.008;4.530;2022-12-29T18:02:52;9.35;78.19
73133;DHT22;61320;52.008;4.530;2022-12-29T18:05:22;9.35;78.20
73133;DHT22;61320;52.008;4.530;2022-12-29T18:07:51;9.32;78.48
73133;DHT22;61320;52.008;4.530;2022-12-29T18:10:18;9.31;78.60
73133;DHT22;61320;52.008;4.530;2022-12-29T18:12:47;9.32;78.89
73133;DHT22;61320;52.008;4.530;2022-12-29T18:15:22;9.38;78.53
73133;DHT22;61320;52.008;4.530;2022-12-29T18:17:48;9.37;78.41
73133;DHT22;61320;52.008;4.530;2022-12-29T18:20:15;9.32;78.77
73133;DHT22;61320;52.008;4.530;2022-12-29T18:22:41;9.31;78.32
73133;DHT22;61320;52.008;4.530;2022-12-29T18:25:46;9.35;78.62
73133;DHT22;61320;52.008;4.530;2022-12-29T18:28:13;9.35;78.29